createdAt,value
2022-08-02T00:00:33.844Z,17.20
2022-08-02T00:03:00.552Z,15.50
2022-08-02T00:07:54.481Z,15.30
2022-08-02T00:12:48.354Z,15.00
2022-08-02T00:15:16.007Z,15.10
2022-08-02T00:17:44.208Z,15.10
2022-08-02T00:20:11.874Z,16.00
2022-08-02T00:22:39.059Z,15.00
2022-08-02T00:25:06.574Z,14.90
2022-08-02T00:27:33.593Z,17.00
2022-08-02T00:32:27.473Z,15.10
2022-08-02T00:42:16.386Z,14.80
2022-08-02T00:44:43.596Z,16.10
2022-08-02T00:47:10.320Z,16.30
2022-08-02T00:52:05.273Z,15.90
2022-08-02T00:54:32.254Z,14.70
2022-08-02T00:56:58.976Z,15.80
2022-08-02T01:07:04.183Z,16.90
2022-08-02T01:12:07.803Z,16.00
2022-08-02T01:14:34.719Z,14.90
2022-08-02T01:17:16.197Z,15.60
2022-08-02T01:20:11.892Z,15.50
2022-08-02T01:25:31.735Z,15.00
2022-08-02T01:28:17.101Z,15.50
2022-08-02T01:30:46.799Z,16.10
2022-08-02T01:33:18.077Z,16.60
2022-08-02T01:35:53.824Z,15.40
2022-08-02T01:38:30.883Z,15.80
2022-08-02T01:40:59.962Z,16.00
2022-08-02T01:43:29.894Z,16.70
2022-08-02T01:45:58.563Z,14.10
2022-08-02T01:48:28.512Z,16.10
2022-08-02T01:50:57.567Z,15.50
2022-08-02T01:53:27.108Z,15.20
2022-08-02T01:55:58.018Z,16.40
2022-08-02T01:58:29.794Z,14.10
2022-08-02T02:00:58.302Z,15.30
2022-08-02T02:03:26.213Z,14.00
2022-08-02T02:05:56.425Z,14.40
2022-08-02T02:08:31.633Z,15.20
2022-08-02T02:12:10.115Z,14.10
2022-08-02T02:13:47.335Z,16.50
2022-08-02T02:16:15.611Z,14.40
2022-08-02T02:18:44.500Z,14.10
2022-08-02T02:21:13.532Z,15.70
2022-08-02T02:26:11.458Z,14.10
2022-08-02T02:28:39.885Z,15.10
2022-08-02T02:31:13.982Z,15.10
2022-08-02T02:33:46.771Z,14.20
2022-08-02T02:36:16.474Z,15.10
2022-08-02T02:38:44.394Z,13.90
2022-08-02T02:41:12.849Z,13.90
2022-08-02T02:43:40.759Z,15.00
2022-08-02T02:46:08.319Z,13.80
2022-08-02T02:48:36.149Z,16.50
2022-08-02T02:51:05.611Z,14.80
2022-08-02T02:54:33.588Z,15.20
2022-08-02T02:56:24.318Z,14.00
2022-08-02T02:58:54.493Z,14.40
2022-08-02T03:01:53.171Z,15.10
2022-08-02T03:04:15.620Z,15.40
2022-08-02T03:06:42.568Z,14.30
2022-08-02T03:09:11.576Z,15.80
2022-08-02T03:11:39.401Z,16.30
2022-08-02T03:14:10.370Z,15.50
2022-08-02T03:16:49.114Z,15.00
2022-08-02T03:19:16.450Z,17.00
2022-08-02T03:21:47.770Z,15.60
2022-08-02T03:26:55.699Z,16.90
2022-08-02T03:31:50.033Z,15.80
2022-08-02T03:34:17.149Z,14.50
2022-08-02T03:36:47.810Z,14.60
2022-08-02T03:41:43.894Z,17.00
2022-08-02T03:44:12.459Z,15.70
2022-08-02T03:46:41.736Z,15.10
2022-08-02T03:49:09.424Z,15.50
2022-08-02T03:51:36.932Z,14.50
2022-08-02T03:54:04.354Z,14.90
2022-08-02T03:56:31.909Z,14.40
2022-08-02T03:59:13.478Z,14.40
2022-08-02T04:01:40.774Z,15.60
2022-08-02T04:04:08.248Z,16.30
2022-08-02T04:06:35.312Z,15.80
2022-08-02T04:09:06.772Z,17.10
2022-08-02T04:11:33.606Z,14.80
2022-08-02T04:14:08.224Z,15.30
2022-08-02T04:16:52.565Z,16.00
2022-08-02T04:19:37.908Z,16.70
2022-08-02T04:22:07.249Z,14.70
2022-08-02T04:24:54.192Z,17.10
2022-08-02T04:28:15.280Z,16.50
2022-08-02T04:30:10.912Z,16.90
2022-08-02T04:32:38.868Z,15.70
2022-08-02T04:35:22.712Z,15.90
2022-08-02T04:40:37.275Z,16.20
2022-08-02T04:43:04.109Z,14.70
2022-08-02T04:45:31.373Z,15.70
2022-08-02T04:50:34.117Z,16.70
2022-08-02T04:53:01.031Z,17.20
2022-08-02T04:55:30.586Z,14.80
2022-08-02T04:57:58.278Z,15.10
2022-08-02T05:00:26.966Z,17.60
2022-08-02T05:02:55.888Z,16.90
2022-08-02T05:07:49.823Z,16.80
2022-08-02T05:12:43.981Z,15.30
2022-08-02T05:15:13.123Z,16.40
2022-08-02T05:20:18.873Z,16.90
2022-08-02T05:25:13.208Z,17.40
2022-08-02T05:27:39.941Z,17.80
2022-08-02T05:30:08.031Z,15.80
2022-08-02T05:35:02.574Z,18.30
2022-08-02T05:37:33.121Z,18.50
2022-08-02T05:42:32.551Z,17.90
2022-08-02T05:47:26.668Z,18.20
2022-08-02T05:49:53.638Z,17.50
2022-08-02T05:52:22.668Z,17.90
2022-08-02T05:54:57.290Z,18.00
2022-08-02T05:57:29.903Z,17.70
2022-08-02T06:00:02.782Z,17.60
2022-08-02T06:02:58.477Z,19.90
2022-08-02T06:05:28.868Z,18.70
2022-08-02T06:07:58.122Z,17.50
2022-08-02T06:10:26.778Z,18.60
2022-08-02T06:13:14.504Z,18.90
2022-08-02T06:15:52.595Z,17.70
2022-08-02T06:18:28.383Z,18.10
2022-08-02T06:22:29.686Z,20.60
2022-08-02T06:23:57.742Z,18.90
2022-08-02T06:26:28.025Z,19.50
2022-08-02T06:28:56.247Z,19.40
2022-08-02T06:31:23.407Z,19.10
2022-08-02T06:36:22.155Z,20.50
2022-08-02T06:39:06.501Z,21.80
2022-08-02T06:41:42.334Z,20.40
2022-08-02T06:44:45.596Z,19.20
2022-08-02T06:49:51.803Z,21.10
2022-08-02T06:52:30.047Z,22.00
2022-08-02T06:55:02.563Z,19.90
2022-08-02T06:57:30.624Z,21.10
2022-08-02T06:59:58.493Z,21.20
2022-08-02T07:02:25.388Z,22.30
2022-08-02T07:04:52.159Z,21.80
2022-08-02T07:07:19.001Z,20.30
2022-08-02T07:12:29.292Z,20.70
2022-08-02T07:17:23.146Z,20.50
2022-08-02T07:19:51.209Z,23.10
2022-08-02T07:22:20.103Z,22.30
2022-08-02T07:24:46.801Z,21.60
2022-08-02T07:27:13.902Z,21.10
2022-08-02T07:29:46.841Z,22.30
2022-08-02T07:32:18.751Z,22.40
2022-08-02T07:34:53.188Z,24.00
2022-08-02T07:37:53.497Z,22.50
2022-08-02T07:40:13.380Z,22.90
2022-08-02T07:42:42.930Z,22.60
2022-08-02T07:47:38.717Z,23.10
2022-08-02T07:50:06.620Z,22.90
2022-08-02T07:52:33.476Z,22.90
2022-08-02T07:55:00.278Z,23.60
2022-08-02T07:57:27.778Z,23.20
2022-08-02T07:59:54.468Z,22.80
2022-08-02T08:02:21.144Z,24.50
2022-08-02T08:04:47.811Z,22.70
2022-08-02T08:09:42.138Z,25.80
2022-08-02T08:12:10.594Z,24.10
2022-08-02T08:14:39.363Z,24.50
2022-08-02T08:17:06.888Z,24.20
2022-08-02T08:22:22.908Z,24.80
2022-08-02T08:24:49.977Z,26.10
2022-08-02T08:27:18.107Z,23.80
2022-08-02T08:29:45.792Z,23.80
2022-08-02T08:32:17.663Z,23.60
2022-08-02T08:34:49.073Z,23.60
2022-08-02T08:37:18.098Z,24.80
2022-08-02T08:39:56.498Z,24.70
2022-08-02T08:42:30.795Z,25.10
2022-08-02T08:44:59.110Z,25.80
2022-08-02T08:47:40.284Z,26.80
2022-08-02T08:50:18.029Z,25.30
2022-08-02T08:52:54.471Z,26.10
2022-08-02T08:55:24.851Z,25.30
2022-08-02T08:57:53.225Z,25.40
2022-08-02T09:00:19.993Z,25.10
2022-08-02T09:02:47.252Z,24.60
2022-08-02T09:05:15.863Z,27.60
2022-08-02T09:07:45.002Z,25.70
2022-08-02T09:10:39.594Z,26.00
2022-08-02T09:13:38.665Z,25.40
2022-08-02T09:16:12.977Z,27.50
2022-08-02T09:18:47.624Z,25.10
2022-08-02T09:21:16.728Z,27.80
2022-08-02T09:23:46.620Z,26.60
2022-08-02T09:26:16.609Z,28.00
2022-08-02T09:28:46.508Z,26.70
2022-08-02T09:31:22.064Z,25.70
2022-08-02T09:33:54.601Z,26.60
2022-08-02T09:39:17.500Z,28.70
2022-08-02T09:41:45.387Z,28.50
2022-08-02T09:44:16.133Z,26.40
2022-08-02T09:46:44.991Z,27.40
2022-08-02T09:49:13.262Z,27.50
2022-08-02T09:51:48.931Z,28.40
2022-08-02T09:54:20.801Z,28.50
2022-08-02T09:56:49.913Z,28.10
2022-08-02T09:59:18.720Z,29.80
2022-08-02T10:01:51.636Z,27.60
2022-08-02T10:04:30.731Z,30.10
2022-08-02T10:06:59.809Z,29.20
2022-08-02T10:09:28.893Z,28.80
2022-08-02T10:11:57.067Z,27.20
2022-08-02T10:14:24.189Z,27.80
2022-08-02T10:16:54.144Z,27.50
2022-08-02T10:20:00.440Z,28.80
2022-08-02T10:22:12.758Z,27.20
2022-08-02T10:24:47.573Z,27.10
2022-08-02T10:27:19.940Z,27.00
2022-08-02T10:29:53.630Z,27.80
2022-08-02T10:32:46.016Z,28.90
2022-08-02T10:35:18.510Z,28.00
2022-08-02T10:37:50.783Z,28.30
2022-08-02T10:42:53.192Z,27.50
2022-08-02T10:45:22.012Z,28.60
2022-08-02T10:48:07.343Z,28.70
2022-08-02T10:50:46.123Z,27.60
2022-08-02T10:53:27.009Z,29.10
2022-08-02T10:55:55.309Z,29.30
2022-08-02T10:58:26.337Z,29.30
2022-08-02T11:00:57.653Z,30.80
2022-08-02T11:03:40.733Z,30.00
2022-08-02T11:06:24.656Z,29.00
2022-08-02T11:09:33.394Z,31.00
2022-08-02T11:12:03.415Z,30.40
2022-08-02T11:14:31.900Z,29.90
2022-08-02T11:16:58.554Z,29.00
2022-08-02T11:19:27.330Z,28.70
2022-08-02T11:22:04.536Z,28.60
2022-08-02T11:24:33.335Z,29.70
2022-08-02T11:27:01.490Z,29.70
2022-08-02T11:29:41.526Z,29.10
2022-08-02T11:32:30.613Z,30.50
2022-08-02T11:34:58.914Z,30.80
2022-08-02T11:37:29.881Z,29.80
2022-08-02T11:39:56.645Z,31.00
2022-08-02T11:42:38.624Z,31.10
2022-08-02T11:45:07.009Z,29.20
2022-08-02T11:47:34.516Z,29.10
2022-08-02T11:50:09.785Z,29.60
2022-08-02T11:52:37.783Z,29.10
2022-08-02T11:55:08.753Z,29.90
2022-08-02T11:58:01.706Z,28.90
2022-08-02T12:00:22.585Z,30.00
2022-08-02T12:05:39.135Z,30.90
2022-08-02T12:08:10.662Z,29.10
2022-08-02T12:10:47.850Z,29.60
2022-08-02T12:15:46.548Z,30.60
2022-08-02T12:18:38.280Z,31.10
2022-08-02T12:21:22.335Z,30.70
2022-08-02T12:23:59.610Z,30.20
2022-08-02T12:26:28.425Z,30.70
2022-08-02T12:29:01.445Z,30.10
2022-08-02T12:31:57.557Z,29.80
2022-08-02T12:34:31.351Z,29.80
2022-08-02T12:37:07.509Z,29.40
2022-08-02T12:39:45.990Z,30.60
2022-08-02T12:42:14.670Z,30.50
2022-08-02T12:44:58.748Z,30.20
2022-08-02T12:47:35.682Z,31.20
2022-08-02T12:50:26.411Z,29.90
2022-08-02T12:53:17.542Z,29.60
2022-08-02T12:56:03.847Z,29.70
2022-08-02T12:58:45.964Z,29.80
2022-08-02T13:01:20.008Z,30.40
2022-08-02T13:06:43.341Z,31.10
2022-08-02T13:09:17.009Z,30.10
2022-08-02T13:14:13.017Z,32.10
2022-08-02T13:16:41.450Z,29.70
2022-08-02T13:19:08.211Z,31.60
2022-08-02T13:27:09.343Z,29.70
2022-08-02T13:29:37.874Z,29.50
2022-08-02T13:32:04.980Z,29.40
2022-08-02T13:34:31.706Z,29.50
2022-08-02T13:36:58.457Z,29.40
2022-08-02T13:41:52.787Z,30.40
2022-08-02T13:46:47.032Z,31.00
2022-08-02T13:49:18.759Z,30.40
2022-08-02T13:51:46.479Z,31.10
2022-08-02T13:54:13.265Z,31.50
2022-08-02T13:56:40.218Z,30.60
2022-08-02T13:59:54.210Z,31.10
2022-08-02T14:01:56.601Z,30.80
2022-08-02T14:04:24.507Z,29.70
2022-08-02T14:06:51.649Z,30.40
2022-08-02T14:09:18.832Z,30.30
2022-08-02T14:11:46.845Z,30.20
2022-08-02T14:16:45.192Z,31.10
2022-08-02T14:19:16.648Z,29.70
2022-08-02T14:21:48.573Z,30.10
2022-08-02T14:24:17.152Z,32.10
2022-08-02T14:26:45.783Z,29.80
2022-08-02T14:29:12.907Z,30.80
2022-08-02T14:31:43.963Z,30.60
2022-08-02T14:34:11.837Z,29.20
2022-08-02T14:36:39.105Z,31.00
2022-08-02T14:39:06.159Z,29.60
2022-08-02T14:41:59.863Z,29.80
2022-08-02T14:46:51.331Z,29.70
2022-08-02T14:49:25.060Z,29.90
2022-08-02T14:51:55.627Z,29.90
2022-08-02T14:54:27.748Z,30.40
2022-08-02T14:59:24.095Z,31.40
2022-08-02T15:01:50.839Z,29.20
2022-08-02T15:04:18.215Z,30.00
2022-08-02T15:09:13.532Z,29.10
2022-08-02T15:11:47.686Z,28.70
2022-08-02T15:14:21.871Z,29.10
2022-08-02T15:16:58.566Z,30.60
2022-08-02T15:19:56.129Z,28.70
2022-08-02T15:22:16.898Z,29.00
2022-08-02T15:24:46.815Z,30.50
2022-08-02T15:27:14.701Z,29.80
2022-08-02T15:29:42.937Z,28.50
2022-08-02T15:32:10.579Z,28.30
2022-08-02T15:37:04.956Z,30.40
2022-08-02T15:39:31.784Z,28.40
2022-08-02T15:41:58.510Z,30.50
2022-08-02T15:44:25.274Z,29.20
2022-08-02T15:46:53.341Z,29.60
2022-08-02T15:51:51.055Z,30.10
2022-08-02T15:54:18.002Z,30.00
2022-08-02T15:56:47.863Z,29.30
2022-08-02T15:59:14.672Z,28.60
2022-08-02T16:01:46.547Z,28.80
2022-08-02T16:04:14.879Z,30.20
2022-08-02T16:09:08.948Z,28.60
2022-08-02T16:11:35.733Z,28.20
2022-08-02T16:16:31.806Z,28.90
2022-08-02T16:18:59.496Z,29.20
2022-08-02T16:21:47.576Z,28.60
2022-08-02T16:24:14.352Z,28.60
2022-08-02T16:26:41.173Z,29.00
2022-08-02T16:29:07.994Z,28.80
2022-08-02T16:31:41.976Z,30.30
2022-08-02T16:39:05.476Z,29.30
2022-08-02T16:46:54.862Z,29.00
2022-08-02T16:52:09.590Z,29.50
2022-08-02T16:54:38.095Z,30.00
2022-08-02T16:57:07.397Z,30.50
2022-08-02T16:59:42.651Z,29.20
2022-08-02T17:02:18.264Z,30.30
2022-08-02T17:04:49.933Z,28.40
2022-08-02T17:10:06.703Z,29.80
2022-08-02T17:12:37.175Z,29.60
2022-08-02T17:15:47.024Z,29.80
2022-08-02T17:20:21.387Z,27.70
2022-08-02T17:25:18.418Z,27.80
2022-08-02T17:27:45.685Z,28.10
2022-08-02T17:30:13.083Z,27.70
2022-08-02T17:32:40.236Z,27.60
2022-08-02T17:35:15.466Z,27.80
2022-08-02T17:42:54.154Z,27.90
2022-08-02T17:50:32.813Z,29.40
2022-08-02T17:53:00.049Z,28.00
2022-08-02T17:57:59.386Z,29.50
2022-08-02T18:03:20.260Z,27.50
2022-08-02T18:05:55.337Z,27.00
2022-08-02T18:13:38.992Z,28.10
2022-08-02T18:16:21.136Z,27.30
2022-08-02T18:18:48.471Z,27.10
2022-08-02T18:21:22.459Z,27.70
2022-08-02T18:23:58.566Z,28.50
2022-08-02T18:26:27.316Z,28.90
2022-08-02T18:28:57.384Z,28.00
2022-08-02T18:31:25.009Z,27.90
2022-08-02T18:33:56.089Z,29.10
2022-08-02T18:38:55.197Z,26.80
2022-08-02T18:41:22.258Z,27.20
2022-08-02T18:43:51.510Z,27.60
2022-08-02T18:48:48.117Z,26.40
2022-08-02T18:51:16.225Z,27.00
2022-08-02T18:53:48.782Z,26.30
2022-08-02T18:58:48.236Z,27.10
2022-08-02T19:01:21.804Z,28.30
2022-08-02T19:04:02.283Z,25.80
2022-08-02T19:06:29.721Z,25.80
2022-08-02T19:09:05.544Z,25.70
2022-08-02T19:11:40.961Z,25.80
2022-08-02T19:16:37.033Z,27.50
2022-08-02T19:19:08.860Z,26.70
2022-08-02T19:22:15.441Z,26.60
2022-08-02T19:26:51.901Z,27.20
2022-08-02T19:29:24.993Z,25.20
2022-08-02T19:31:59.893Z,24.90
2022-08-02T19:34:31.093Z,26.00
2022-08-02T19:37:00.597Z,25.80
2022-08-02T19:46:56.771Z,25.40
2022-08-02T19:52:20.888Z,24.70
2022-08-02T19:54:55.230Z,25.20
2022-08-02T19:57:25.195Z,26.70
2022-08-02T20:04:54.689Z,26.30
2022-08-02T20:12:42.168Z,24.10
2022-08-02T20:15:14.462Z,26.00
2022-08-02T20:20:16.799Z,24.10
2022-08-02T20:23:31.916Z,23.90
2022-08-02T20:25:54.172Z,26.00
2022-08-02T20:31:09.981Z,24.80
2022-08-02T20:33:36.926Z,25.50
2022-08-02T20:36:23.338Z,25.90
2022-08-02T20:38:50.133Z,23.40
2022-08-02T20:41:21.619Z,23.50
2022-08-02T20:43:48.779Z,23.50
2022-08-02T20:46:17.794Z,23.70
2022-08-02T20:48:44.942Z,24.30
2022-08-02T20:51:13.968Z,25.60
2022-08-02T20:53:54.894Z,23.80
2022-08-02T20:56:23.588Z,24.70
2022-08-02T20:58:51.925Z,24.10
2022-08-02T21:01:21.247Z,23.00
2022-08-02T21:03:58.778Z,24.00
2022-08-02T21:06:29.796Z,23.50
2022-08-02T21:08:57.003Z,24.40
2022-08-02T21:11:33.558Z,24.50
2022-08-02T21:14:07.973Z,23.00
2022-08-02T21:16:36.181Z,23.70
2022-08-02T21:19:03.267Z,24.10
2022-08-02T21:21:37.232Z,23.40
2022-08-02T21:24:04.521Z,25.10
2022-08-02T21:26:32.376Z,23.50
2022-08-02T21:29:03.919Z,22.60
2022-08-02T21:31:33.448Z,23.00
2022-08-02T21:36:33.152Z,23.10
2022-08-02T21:39:09.253Z,23.80
2022-08-02T21:41:46.594Z,23.40
2022-08-02T21:44:19.212Z,22.80
2022-08-02T21:46:49.164Z,23.30
2022-08-02T21:49:41.060Z,22.60
2022-08-02T21:52:09.378Z,22.00
2022-08-02T21:57:24.402Z,23.10
2022-08-02T21:59:53.061Z,24.20
2022-08-02T22:02:30.545Z,22.80
2022-08-02T22:04:57.739Z,23.40
2022-08-02T22:07:24.678Z,24.00
2022-08-02T22:09:52.700Z,24.30
2022-08-02T22:12:19.812Z,23.80
2022-08-02T22:14:53.710Z,22.90
2022-08-02T22:17:51.454Z,22.90
2022-08-02T22:20:19.730Z,22.30
2022-08-02T22:22:50.130Z,21.90
2022-08-02T22:25:26.956Z,21.70
2022-08-02T22:28:38.160Z,21.60
2022-08-02T22:30:57.007Z,21.60
2022-08-02T22:33:47.287Z,21.70
2022-08-02T22:36:33.517Z,23.40
2022-08-02T22:39:01.732Z,21.60
2022-08-02T22:42:01.431Z,21.70
2022-08-02T22:44:18.426Z,22.00
2022-08-02T22:46:46.016Z,21.90
2022-08-02T22:51:59.977Z,23.70
2022-08-02T22:54:26.632Z,22.90
2022-08-02T22:56:53.337Z,23.20
2022-08-02T22:58:41.485Z,29.20
2022-08-02T22:58:58.414Z,27.00
2022-08-02T22:59:06.870Z,23.80
2022-08-02T22:59:11.671Z,23.20
2022-08-02T23:02:07.364Z,21.30
2022-08-02T23:04:34.177Z,22.70
2022-08-02T23:09:28.393Z,22.60
2022-08-02T23:14:22.380Z,21.30
2022-08-02T23:17:08.723Z,21.60
2022-08-02T23:19:50.708Z,21.10
2022-08-02T23:22:29.112Z,21.50
2022-08-02T23:24:57.138Z,23.10
2022-08-02T23:27:23.924Z,22.90
2022-08-02T23:29:50.928Z,21.20
2022-08-02T23:32:18.079Z,22.20
2022-08-02T23:34:46.376Z,22.80
2022-08-02T23:37:13.091Z,22.40
2022-08-02T23:42:07.227Z,20.50
2022-08-02T23:47:01.498Z,20.80
2022-08-02T23:52:01.061Z,20.40
2022-08-02T23:54:28.713Z,21.20
2022-08-02T23:56:55.685Z,22.50
